Naylor, Georgia
Current Conditions -  °F | °C
As of 2:58 PM on Saturday 25 Oct 2014 (Local Time) from KVAD Reporting Station
Clear Clear  
Wind Chill: 78°   Ceiling: Unl
Heat Index: 78°   Visibility: 10mi
Dew Point: 43°   Wind: 7mph
Humidity: 29%   Direction: 330°NNW
Pressure: 29.98"   Gusts: NA
Location:  30.91°N, 83.08°W
Report Text: KVAD 251858Z AUTO 33006KT 10SM CLR 25/06 A2998 RMK AO2 SLP154 T02530060 $
Loading
Personal Weather Stations






























Interactive Weather Map
Tropical Storm Tracking
New forecast layout! Learn more

10-Day Weather Forecast

Advertisements
Track Severe Weather on mobile